Time;durP1;ratioP1;P1;durP2;ratioP2;P2;SDS_P1;SDS_P2;PMS_P1;PMS_P2;Temp;Humidity;BMP_temperature;BMP_pressure;BME280_temperature;BME280_humidity;BME280_pressure;Samples;Min_cycle;Max_cycle;Signal;HPM_P1;HPM_P2
2023/08/12 00:00:23;;;;;;;;;;;18.30;99.90;;;;;;2058168;28;19948;-77
2023/08/12 00:01:24;;;;;;;;;;;18.20;99.90;;;;;;2064464;28;19924;-78
2023/08/12 00:02:25;;;;;;;;;;;18.30;99.90;;;;;;2066551;28;19932;-78
2023/08/12 00:03:25;;;;;;;;;;;18.30;99.90;;;;;;2064382;28;19917;-77
2023/08/12 00:04:26;;;;;;;;;;;18.20;99.90;;;;;;2057930;28;20425;-79
2023/08/12 00:05:26;;;;;;;;;;;18.20;99.90;;;;;;2056982;28;20476;-76
2023/08/12 00:06:28;;;;;;;;;;;18.30;99.90;;;;;;2051310;28;19922;-74
2023/08/12 00:07:29;;;;;;;;;;;18.30;99.90;;;;;;2059190;28;19922;-76
2023/08/12 00:08:29;;;;;;;;;;;18.20;99.90;;;;;;2055513;28;20193;-77
2023/08/12 00:09:30;;;;;;;;;;;18.20;99.90;;;;;;2056792;28;20036;-77
2023/08/12 00:10:31;;;;;;;;;;;18.20;99.90;;;;;;2047761;28;20436;-77
2023/08/12 00:11:32;;;;;;;;;;;18.20;99.90;;;;;;2058050;28;19917;-77
2023/08/12 00:12:33;;;;;;;;;;;18.20;99.90;;;;;;2056472;28;19956;-77
2023/08/12 00:13:36;;;;;;;;;;;18.20;99.90;;;;;;2058991;28;19936;-77
2023/08/12 00:14:36;;;;;;;;;;;18.20;99.90;;;;;;2059120;28;20473;-76
2023/08/12 00:15:37;;;;;;;;;;;18.20;99.90;;;;;;2059023;28;20098;-77
2023/08/12 00:16:37;;;;;;;;;;;18.20;99.90;;;;;;2058886;28;20411;-77
2023/08/12 00:17:41;;;;;;;;;;;18.10;99.90;;;;;;2046656;28;19921;-77
2023/08/12 00:18:41;;;;;;;;;;;18.10;99.90;;;;;;2051086;28;20001;-77
2023/08/12 00:19:43;;;;;;;;;;;18.10;99.90;;;;;;2056674;28;19914;-77
2023/08/12 00:20:44;;;;;;;;;;;18.10;99.90;;;;;;2050103;28;20436;-77
2023/08/12 00:21:44;;;;;;;;;;;18.10;99.90;;;;;;2055617;28;19921;-77
2023/08/12 00:22:45;;;;;;;;;;;18.10;99.90;;;;;;2057582;28;19972;-76
2023/08/12 00:23:47;;;;;;;;;;;18.10;99.90;;;;;;2058334;28;20709;-78
2023/08/12 00:24:48;;;;;;;;;;;18.10;99.90;;;;;;2058228;28;20439;-79
2023/08/12 00:25:49;;;;;;;;;;;18.10;99.90;;;;;;2057056;28;20004;-78
2023/08/12 00:26:49;;;;;;;;;;;18.10;99.90;;;;;;2046067;28;19924;-78
2023/08/12 00:27:50;;;;;;;;;;;18.10;99.90;;;;;;2042123;28;19918;-80
2023/08/12 00:28:51;;;;;;;;;;;18.10;99.90;;;;;;2042866;28;19926;-77
2023/08/12 00:29:51;;;;;;;;;;;18.00;99.90;;;;;;2047903;28;19973;-79
2023/08/12 00:30:52;;;;;;;;;;;18.00;99.90;;;;;;2050236;28;19918;-79
2023/08/12 00:31:52;;;;;;;;;;;18.00;99.90;;;;;;2060025;28;20161;-77
2023/08/12 00:32:53;;;;;;;;;;;18.00;99.90;;;;;;2058660;28;19921;-73
2023/08/12 00:33:53;;;;;;;;;;;18.00;99.90;;;;;;2058906;28;20401;-74
2023/08/12 00:34:54;;;;;;;;;;;17.90;99.90;;;;;;2057809;28;19964;-72
2023/08/12 00:35:54;;;;;;;;;;;17.90;99.90;;;;;;2059830;28;19989;-71
2023/08/12 00:36:55;;;;;;;;;;;17.90;99.90;;;;;;2058746;28;19980;-72
2023/08/12 00:37:56;;;;;;;;;;;17.90;99.90;;;;;;2056467;28;19913;-74
2023/08/12 00:38:57;;;;;;;;;;;17.90;99.90;;;;;;2055951;28;19965;-74
2023/08/12 00:39:58;;;;;;;;;;;17.90;99.90;;;;;;2057618;28;19922;-75
2023/08/12 00:40:58;;;;;;;;;;;17.80;99.90;;;;;;2056073;28;20025;-75
2023/08/12 00:41:59;;;;;;;;;;;17.80;99.90;;;;;;2057264;28;19921;-75
2023/08/12 00:42:59;;;;;;;;;;;17.80;99.90;;;;;;2055513;28;19914;-75
2023/08/12 00:44:00;;;;;;;;;;;17.80;99.90;;;;;;2055653;28;19910;-74
2023/08/12 00:45:00;;;;;;;;;;;17.80;99.90;;;;;;2059891;28;20328;-73
2023/08/12 00:46:02;;;;;;;;;;;17.80;99.90;;;;;;2042030;28;19915;-75
2023/08/12 00:47:03;;;;;;;;;;;17.80;99.90;;;;;;2046319;28;19918;-75
2023/08/12 00:48:04;;;;;;;;;;;17.70;99.90;;;;;;2041967;28;20394;-75
2023/08/12 00:49:04;;;;;;;;;;;17.70;99.90;;;;;;2052048;28;19921;-75
2023/08/12 00:50:06;;;;;;;;;;;17.70;99.90;;;;;;2048564;28;19918;-75
2023/08/12 00:51:09;;;;;;;;;;;17.70;99.90;;;;;;2045163;28;20267;-75
2023/08/12 00:52:09;;;;;;;;;;;17.70;99.90;;;;;;2067709;28;19940;-76
2023/08/12 00:53:12;;;;;;;;;;;17.70;99.90;;;;;;2062291;28;19956;-76
2023/08/12 00:54:14;;;;;;;;;;;17.60;99.90;;;;;;2061165;28;19918;-74
2023/08/12 00:55:14;;;;;;;;;;;17.60;99.90;;;;;;2058515;28;19922;-75
2023/08/12 00:56:15;;;;;;;;;;;17.60;99.90;;;;;;2058817;28;19968;-75
2023/08/12 00:57:16;;;;;;;;;;;17.60;99.90;;;;;;2050547;28;19919;-75
2023/08/12 00:58:16;;;;;;;;;;;17.60;99.90;;;;;;2057965;28;20425;-74
2023/08/12 00:59:19;;;;;;;;;;;17.60;99.90;;;;;;2060580;28;19936;-75
2023/08/12 01:00:20;;;;;;;;;;;17.60;99.90;;;;;;2058661;28;19933;-74
2023/08/12 01:01:21;;;;;;;;;;;17.60;99.90;;;;;;2058128;28;20030;-74
2023/08/12 01:02:22;;;;;;;;;;;17.60;99.90;;;;;;2054272;28;19952;-74
2023/08/12 01:03:23;;;;;;;;;;;17.60;99.90;;;;;;2063874;28;20015;-74
2023/08/12 01:04:23;;;;;;;;;;;17.60;99.90;;;;;;2049832;28;19918;-74
2023/08/12 01:05:25;;;;;;;;;;;17.60;99.90;;;;;;2043364;28;19961;-75
2023/08/12 01:06:25;;;;;;;;;;;17.60;99.90;;;;;;2046602;28;19948;-74
2023/08/12 01:07:26;;;;;;;;;;;17.60;99.90;;;;;;2060023;28;19918;-77
2023/08/12 01:08:29;;;;;;;;;;;17.50;99.90;;;;;;2058113;28;19914;-74
2023/08/12 01:09:29;;;;;;;;;;;17.50;99.90;;;;;;2057662;28;19918;-75
2023/08/12 01:10:34;;;;;;;;;;;17.50;99.90;;;;;;2038382;28;20175;-75
2023/08/12 01:11:37;;;;;;;;;;;17.50;99.90;;;;;;2039302;28;20017;-73
2023/08/12 01:12:44;;;;;;;;;;;17.50;99.90;;;;;;2050447;28;19988;-73
2023/08/12 01:14:06;;;;;;;;;;;17.50;99.90;;;;;;2057946;28;19995;-73
2023/08/12 01:15:20;;;;;;;;;;;17.50;99.90;;;;;;2047035;28;20435;-75
2023/08/12 01:16:25;;;;;;;;;;;17.50;99.90;;;;;;2051128;28;20313;-75
2023/08/12 01:17:27;;;;;;;;;;;17.50;99.90;;;;;;2052374;28;19918;-74
2023/08/12 01:18:27;;;;;;;;;;;17.50;99.90;;;;;;2056910;28;19914;-75
2023/08/12 01:19:35;;;;;;;;;;;17.50;99.90;;;;;;2060147;28;20166;-74
2023/08/12 01:20:36;;;;;;;;;;;17.50;99.90;;;;;;2059072;28;20403;-74
2023/08/12 01:21:39;;;;;;;;;;;17.50;99.90;;;;;;2061220;28;19917;-74
2023/08/12 01:22:40;;;;;;;;;;;17.50;99.90;;;;;;2059561;28;19918;-75
2023/08/12 01:23:41;;;;;;;;;;;17.50;99.90;;;;;;2057105;28;19964;-74
2023/08/12 01:24:42;;;;;;;;;;;17.50;99.90;;;;;;2057425;28;19913;-74
2023/08/12 01:25:43;;;;;;;;;;;17.40;99.90;;;;;;2059326;28;19914;-75
2023/08/12 01:26:43;;;;;;;;;;;17.40;99.90;;;;;;2051141;28;19922;-74
2023/08/12 01:27:44;;;;;;;;;;;17.40;99.90;;;;;;2037493;29;20391;-74
2023/08/12 01:28:44;;;;;;;;;;;17.40;99.90;;;;;;2043394;28;19914;-74
2023/08/12 01:29:47;;;;;;;;;;;17.40;99.90;;;;;;2041001;28;20053;-74
2023/08/12 01:30:56;;;;;;;;;;;17.40;99.90;;;;;;2048237;28;19914;-73
2023/08/12 01:32:07;;;;;;;;;;;17.40;99.90;;;;;;2051629;28;21368;-74
2023/08/12 01:33:16;;;;;;;;;;;17.40;99.90;;;;;;2059967;28;20153;-73
2023/08/12 01:34:23;;;;;;;;;;;17.40;99.90;;;;;;2046828;28;19918;-75
2023/08/12 01:35:31;;;;;;;;;;;17.40;99.90;;;;;;2044200;28;19922;-73
2023/08/12 01:36:34;;;;;;;;;;;17.40;99.90;;;;;;2055512;28;19918;-73
2023/08/12 01:37:35;;;;;;;;;;;17.40;99.90;;;;;;2057944;28;19945;-74
2023/08/12 01:38:38;;;;;;;;;;;17.40;99.90;;;;;;2059264;28;19924;-74
2023/08/12 01:39:39;;;;;;;;;;;17.40;99.90;;;;;;2059350;28;20084;-75
2023/08/12 01:40:40;;;;;;;;;;;17.40;99.90;;;;;;2053754;28;19922;-75
2023/08/12 01:41:41;;;;;;;;;;;17.40;99.90;;;;;;2058637;28;19917;-74
2023/08/12 01:42:42;;;;;;;;;;;17.40;99.90;;;;;;2059247;28;19942;-75
2023/08/12 01:43:42;;;;;;;;;;;17.40;99.90;;;;;;2053607;28;20001;-74
2023/08/12 01:44:43;;;;;;;;;;;17.40;99.90;;;;;;2057559;28;20412;-75
2023/08/12 01:45:44;;;;;;;;;;;17.40;99.90;;;;;;2059427;28;19925;-73
2023/08/12 01:46:44;;;;;;;;;;;17.40;99.90;;;;;;2054817;28;19926;-76
2023/08/12 01:47:45;;;;;;;;;;;17.40;99.90;;;;;;2054687;28;20384;-76
2023/08/12 01:48:45;;;;;;;;;;;17.40;99.90;;;;;;2052912;28;20661;-76
2023/08/12 01:49:46;;;;;;;;;;;17.40;99.90;;;;;;2048777;28;22480;-75
2023/08/12 01:50:47;;;;;;;;;;;17.40;99.90;;;;;;2049200;28;19925;-75
2023/08/12 01:51:48;;;;;;;;;;;17.40;99.90;;;;;;2055841;28;19953;-76
2023/08/12 01:52:48;;;;;;;;;;;17.40;99.90;;;;;;2061031;28;20405;-76
2023/08/12 01:53:49;;;;;;;;;;;17.40;99.90;;;;;;2047016;28;20440;-75
2023/08/12 01:54:49;;;;;;;;;;;17.40;99.90;;;;;;2059023;28;20199;-75
2023/08/12 01:55:52;;;;;;;;;;;17.40;99.90;;;;;;2056808;28;19914;-75
2023/08/12 01:56:52;;;;;;;;;;;17.40;99.90;;;;;;2060847;28;19918;-73
2023/08/12 01:57:53;;;;;;;;;;;17.40;99.90;;;;;;2057072;28;20116;-74
2023/08/12 01:58:53;;;;;;;;;;;17.40;99.90;;;;;;2054420;28;20293;-73
2023/08/12 01:59:54;;;;;;;;;;;17.40;99.90;;;;;;2056662;28;20219;-73
2023/08/12 02:00:54;;;;;;;;;;;17.40;99.90;;;;;;2072462;28;20003;-74
2023/08/12 02:01:55;;;;;;;;;;;17.40;99.90;;;;;;2051282;28;19960;-76
2023/08/12 02:02:55;;;;;;;;;;;17.40;99.90;;;;;;2048915;28;19990;-77
2023/08/12 02:03:56;;;;;;;;;;;17.40;99.90;;;;;;2054060;28;20000;-76
2023/08/12 02:04:56;;;;;;;;;;;17.40;99.90;;;;;;2060496;28;19980;-76
2023/08/12 02:05:59;;;;;;;;;;;17.30;99.90;;;;;;2061175;28;19914;-76
2023/08/12 02:07:00;;;;;;;;;;;17.40;99.90;;;;;;2058932;28;19917;-76
2023/08/12 02:08:00;;;;;;;;;;;17.40;99.90;;;;;;2050930;28;19914;-77
2023/08/12 02:09:01;;;;;;;;;;;17.40;99.90;;;;;;2060738;28;20381;-76
2023/08/12 02:10:01;;;;;;;;;;;17.30;99.90;;;;;;2053882;28;19918;-75
2023/08/12 02:11:02;;;;;;;;;;;17.30;99.90;;;;;;2059047;28;20369;-77
2023/08/12 02:12:03;;;;;;;;;;;17.30;99.90;;;;;;2046951;28;20527;-78
2023/08/12 02:13:03;;;;;;;;;;;17.30;99.90;;;;;;2046277;28;19914;-76
2023/08/12 02:14:04;;;;;;;;;;;17.30;99.90;;;;;;2046171;28;20465;-76
2023/08/12 02:15:05;;;;;;;;;;;17.30;99.90;;;;;;2044767;28;19922;-77
2023/08/12 02:16:05;;;;;;;;;;;17.20;99.90;;;;;;2049909;28;19914;-77
2023/08/12 02:17:06;;;;;;;;;;;17.20;99.90;;;;;;2057569;28;20381;-77
2023/08/12 02:18:07;;;;;;;;;;;17.20;99.90;;;;;;2058187;28;20160;-77
2023/08/12 02:19:08;;;;;;;;;;;17.20;99.90;;;;;;2060866;28;19922;-77
2023/08/12 02:20:09;;;;;;;;;;;17.20;99.90;;;;;;2050790;28;20417;-75
2023/08/12 02:21:09;;;;;;;;;;;17.10;99.90;;;;;;2047315;28;19918;-74
2023/08/12 02:22:10;;;;;;;;;;;17.10;99.90;;;;;;2042816;28;20393;-75
2023/08/12 02:23:10;;;;;;;;;;;17.10;99.90;;;;;;2056150;28;20250;-75
2023/08/12 02:24:11;;;;;;;;;;;17.10;99.90;;;;;;2066865;28;19924;-73
2023/08/12 02:25:11;;;;;;;;;;;17.10;99.90;;;;;;2068847;28;20347;-73
2023/08/12 02:26:13;;;;;;;;;;;17.10;99.90;;;;;;2056509;28;20317;-74
2023/08/12 02:27:14;;;;;;;;;;;17.10;99.90;;;;;;2059026;28;19914;-73
2023/08/12 02:28:14;;;;;;;;;;;17.10;99.90;;;;;;2058830;28;20000;-73
2023/08/12 02:29:15;;;;;;;;;;;17.10;99.90;;;;;;2052357;28;19937;-73
2023/08/12 02:30:15;;;;;;;;;;;17.10;99.90;;;;;;2059569;28;19922;-74
2023/08/12 02:31:16;;;;;;;;;;;17.00;99.90;;;;;;2053206;28;20009;-73
2023/08/12 02:32:16;;;;;;;;;;;17.00;99.90;;;;;;2058236;28;19922;-73
2023/08/12 02:33:17;;;;;;;;;;;17.00;99.90;;;;;;2046584;28;20472;-72
2023/08/12 02:34:17;;;;;;;;;;;17.00;99.90;;;;;;2060718;28;19918;-75
2023/08/12 02:35:18;;;;;;;;;;;17.00;99.90;;;;;;2055688;28;20494;-74
2023/08/12 02:36:19;;;;;;;;;;;17.00;99.90;;;;;;2058216;28;20546;-73
2023/08/12 02:37:19;;;;;;;;;;;17.00;99.90;;;;;;2058928;28;20025;-73
2023/08/12 02:38:21;;;;;;;;;;;17.00;99.90;;;;;;2042220;28;19978;-73
2023/08/12 02:39:21;;;;;;;;;;;16.90;99.90;;;;;;2048979;28;19958;-74
2023/08/12 02:40:22;;;;;;;;;;;16.90;99.90;;;;;;2043607;28;20441;-73
2023/08/12 02:41:22;;;;;;;;;;;16.90;99.90;;;;;;2044263;28;20634;-75
2023/08/12 02:42:23;;;;;;;;;;;16.90;99.90;;;;;;2051117;28;19918;-73
2023/08/12 02:43:23;;;;;;;;;;;16.90;99.90;;;;;;2052997;28;19925;-73
2023/08/12 02:44:24;;;;;;;;;;;16.80;99.90;;;;;;2047306;28;19918;-73
2023/08/12 02:45:24;;;;;;;;;;;16.80;99.90;;;;;;2045586;28;20554;-73
2023/08/12 02:46:25;;;;;;;;;;;16.80;99.90;;;;;;2058642;28;19917;-74
2023/08/12 02:47:26;;;;;;;;;;;16.80;99.90;;;;;;2058631;28;20000;-73
2023/08/12 02:48:27;;;;;;;;;;;16.80;99.90;;;;;;2052800;28;19925;-73
2023/08/12 02:49:27;;;;;;;;;;;16.80;99.90;;;;;;2050799;28;19976;-74
2023/08/12 02:50:28;;;;;;;;;;;16.80;99.90;;;;;;2049805;28;20361;-73
2023/08/12 02:51:28;;;;;;;;;;;16.80;99.90;;;;;;2055563;28;19984;-73
2023/08/12 02:52:29;;;;;;;;;;;16.80;99.90;;;;;;2056743;28;20499;-73
2023/08/12 02:53:29;;;;;;;;;;;16.80;99.90;;;;;;2050882;28;19929;-73
2023/08/12 02:54:30;;;;;;;;;;;16.80;99.90;;;;;;2046516;28;19957;-73
2023/08/12 02:55:32;;;;;;;;;;;16.80;99.90;;;;;;2047420;28;19914;-73
2023/08/12 02:56:32;;;;;;;;;;;16.80;99.90;;;;;;2056486;28;19920;-74
2023/08/12 02:57:33;;;;;;;;;;;16.80;99.90;;;;;;2058877;28;19918;-73
2023/08/12 02:58:34;;;;;;;;;;;16.80;99.90;;;;;;2058490;28;19941;-74
2023/08/12 02:59:35;;;;;;;;;;;16.80;99.90;;;;;;2059323;28;19926;-74
2023/08/12 03:00:35;;;;;;;;;;;16.80;99.90;;;;;;2060595;28;19914;-74
2023/08/12 03:01:36;;;;;;;;;;;16.80;99.90;;;;;;2059318;28;19925;-74
2023/08/12 03:02:36;;;;;;;;;;;16.80;99.90;;;;;;2058630;28;20378;-74
2023/08/12 03:03:37;;;;;;;;;;;16.80;99.90;;;;;;2058559;28;20404;-74
2023/08/12 03:04:37;;;;;;;;;;;16.70;99.90;;;;;;2054962;28;19954;-74
2023/08/12 03:05:38;;;;;;;;;;;16.70;99.90;;;;;;2047895;28;19918;-73
2023/08/12 03:06:39;;;;;;;;;;;16.70;99.90;;;;;;2050194;28;20068;-73
2023/08/12 03:07:40;;;;;;;;;;;16.70;99.90;;;;;;2044482;28;19918;-73
2023/08/12 03:08:40;;;;;;;;;;;16.70;99.90;;;;;;2047484;28;19926;-73
2023/08/12 03:09:42;;;;;;;;;;;16.70;99.90;;;;;;2050626;28;19930;-73
2023/08/12 03:10:44;;;;;;;;;;;16.70;99.90;;;;;;2043518;28;19964;-73
2023/08/12 03:11:46;;;;;;;;;;;16.70;99.90;;;;;;2052534;28;19918;-73
2023/08/12 03:12:47;;;;;;;;;;;16.70;99.90;;;;;;2045969;28;19918;-73
2023/08/12 03:13:48;;;;;;;;;;;16.70;99.90;;;;;;2050631;28;19956;-74
2023/08/12 03:14:48;;;;;;;;;;;16.70;99.90;;;;;;2049333;28;19982;-73
2023/08/12 03:15:49;;;;;;;;;;;16.70;99.90;;;;;;2046916;28;19918;-73
2023/08/12 03:16:49;;;;;;;;;;;16.70;99.90;;;;;;2060330;28;20413;-74
2023/08/12 03:17:51;;;;;;;;;;;16.70;99.90;;;;;;2055927;28;20140;-74
2023/08/12 03:18:51;;;;;;;;;;;16.70;99.90;;;;;;2059402;28;19914;-74
2023/08/12 03:19:54;;;;;;;;;;;16.70;99.90;;;;;;2066499;28;19921;-74
2023/08/12 03:20:55;;;;;;;;;;;16.60;99.90;;;;;;2060260;28;19913;-73
2023/08/12 03:21:58;;;;;;;;;;;16.60;99.90;;;;;;2056686;28;19917;-73
2023/08/12 03:23:00;;;;;;;;;;;16.60;99.90;;;;;;2058370;28;20008;-73
2023/08/12 03:24:00;;;;;;;;;;;16.60;99.90;;;;;;2058367;28;20522;-73
2023/08/12 03:25:01;;;;;;;;;;;16.60;99.90;;;;;;2053645;28;19926;-73
2023/08/12 03:26:02;;;;;;;;;;;16.60;99.90;;;;;;2050300;28;19921;-73
2023/08/12 03:27:02;;;;;;;;;;;16.60;99.90;;;;;;2052309;28;19914;-74
2023/08/12 03:28:04;;;;;;;;;;;16.60;99.90;;;;;;2041884;28;19915;-73
2023/08/12 03:29:05;;;;;;;;;;;16.60;99.90;;;;;;2038091;28;19915;-73
2023/08/12 03:30:09;;;;;;;;;;;16.60;99.90;;;;;;2042638;28;22414;-73
2023/08/12 03:31:10;;;;;;;;;;;16.60;99.90;;;;;;2052168;28;20151;-74
2023/08/12 03:32:10;;;;;;;;;;;16.60;99.90;;;;;;2054989;28;19964;-74
2023/08/12 03:33:11;;;;;;;;;;;16.60;99.90;;;;;;2057000;28;20353;-73
2023/08/12 03:34:12;;;;;;;;;;;16.60;99.90;;;;;;2058535;28;19940;-73
2023/08/12 03:35:14;;;;;;;;;;;16.60;99.90;;;;;;2068317;28;20466;-73
2023/08/12 03:36:16;;;;;;;;;;;16.60;99.90;;;;;;2067969;28;20438;-73
2023/08/12 03:37:17;;;;;;;;;;;16.60;99.90;;;;;;2052583;28;19925;-73
2023/08/12 03:38:17;;;;;;;;;;;16.60;99.90;;;;;;2049872;28;19953;-73
2023/08/12 03:39:19;;;;;;;;;;;16.60;99.90;;;;;;2044051;28;19976;-74
2023/08/12 03:40:20;;;;;;;;;;;16.60;99.90;;;;;;2042732;28;19922;-73
2023/08/12 03:41:21;;;;;;;;;;;16.60;99.90;;;;;;2061378;28;20432;-72
2023/08/12 03:42:22;;;;;;;;;;;16.60;99.90;;;;;;2053598;28;20177;-72
2023/08/12 03:43:23;;;;;;;;;;;16.60;99.90;;;;;;2048375;28;19918;-74
2023/08/12 03:44:24;;;;;;;;;;;16.60;99.90;;;;;;2052243;28;20512;-73
2023/08/12 03:45:26;;;;;;;;;;;16.60;99.90;;;;;;2050236;28;19914;-73
2023/08/12 03:46:26;;;;;;;;;;;16.60;99.90;;;;;;2049940;28;19981;-73
2023/08/12 03:47:26;;;;;;;;;;;16.60;99.90;;;;;;2042980;28;19918;-74
2023/08/12 03:48:27;;;;;;;;;;;16.60;99.90;;;;;;2060232;28;19913;-73
2023/08/12 03:49:28;;;;;;;;;;;16.60;99.90;;;;;;2057956;28;20365;-74
2023/08/12 03:50:28;;;;;;;;;;;16.60;99.90;;;;;;2049001;28;19914;-73
2023/08/12 03:51:29;;;;;;;;;;;16.60;99.90;;;;;;2057162;28;19918;-74
2023/08/12 03:52:29;;;;;;;;;;;16.60;99.90;;;;;;2058238;28;20117;-74
2023/08/12 03:53:30;;;;;;;;;;;16.60;99.90;;;;;;2042645;28;19925;-73
2023/08/12 03:54:31;;;;;;;;;;;16.60;99.90;;;;;;2048174;28;20033;-73
2023/08/12 03:55:32;;;;;;;;;;;16.60;99.90;;;;;;2049859;28;20379;-73
2023/08/12 03:56:33;;;;;;;;;;;16.60;99.90;;;;;;2050461;28;19914;-73
2023/08/12 03:57:35;;;;;;;;;;;16.60;99.90;;;;;;2058212;28;19922;-73
2023/08/12 03:58:36;;;;;;;;;;;16.60;99.90;;;;;;2056081;28;19922;-73
2023/08/12 03:59:37;;;;;;;;;;;16.60;99.90;;;;;;2057307;28;19918;-74
2023/08/12 04:00:42;;;;;;;;;;;16.60;99.90;;;;;;2047621;28;20480;-74
2023/08/12 04:01:43;;;;;;;;;;;16.70;99.90;;;;;;2049606;28;19926;-73
2023/08/12 04:02:44;;;;;;;;;;;16.70;99.90;;;;;;2050079;28;19922;-74
2023/08/12 04:03:44;;;;;;;;;;;16.70;99.90;;;;;;2052053;28;20417;-73
2023/08/12 04:04:45;;;;;;;;;;;16.70;99.90;;;;;;2050134;28;19925;-73
2023/08/12 04:05:52;;;;;;;;;;;16.70;99.90;;;;;;2042327;28;19910;-73
2023/08/12 04:06:53;;;;;;;;;;;16.70;99.90;;;;;;2046184;28;19926;-73
2023/08/12 04:07:53;;;;;;;;;;;16.70;99.90;;;;;;2045977;28;19919;-73
2023/08/12 04:08:54;;;;;;;;;;;16.70;99.90;;;;;;2051677;28;19918;-73
2023/08/12 04:09:55;;;;;;;;;;;16.70;99.90;;;;;;2043766;28;19985;-73
2023/08/12 04:10:55;;;;;;;;;;;16.70;99.90;;;;;;2040423;28;19914;-73
2023/08/12 04:11:56;;;;;;;;;;;16.80;99.90;;;;;;2054983;28;19918;-74
2023/08/12 04:12:56;;;;;;;;;;;16.80;99.90;;;;;;2055905;28;19940;-74
2023/08/12 04:13:57;;;;;;;;;;;16.80;99.90;;;;;;2059977;28;19914;-73
2023/08/12 04:14:57;;;;;;;;;;;16.80;99.90;;;;;;2058442;28;20518;-74
2023/08/12 04:15:58;;;;;;;;;;;16.80;99.90;;;;;;2058070;28;19917;-74
2023/08/12 04:16:59;;;;;;;;;;;16.80;99.90;;;;;;2058006;28;19949;-73
2023/08/12 04:18:00;;;;;;;;;;;16.90;99.90;;;;;;2060090;28;19921;-73
2023/08/12 04:19:00;;;;;;;;;;;16.90;99.90;;;;;;2054133;28;20702;-73
2023/08/12 04:20:05;;;;;;;;;;;16.90;99.90;;;;;;2057147;28;20104;-73
2023/08/12 04:21:06;;;;;;;;;;;16.90;99.90;;;;;;2058196;28;19920;-74
2023/08/12 04:22:06;;;;;;;;;;;17.00;99.90;;;;;;2049563;28;19918;-73
2023/08/12 04:23:07;;;;;;;;;;;17.00;99.90;;;;;;2043945;28;19914;-73
2023/08/12 04:24:07;;;;;;;;;;;17.00;99.90;;;;;;2042121;28;20202;-73
2023/08/12 04:25:08;;;;;;;;;;;17.00;99.90;;;;;;2043553;28;19915;-73
2023/08/12 04:26:09;;;;;;;;;;;17.10;99.90;;;;;;2054288;28;20253;-74
2023/08/12 04:27:10;;;;;;;;;;;17.10;99.90;;;;;;2064074;28;19917;-72
2023/08/12 04:28:11;;;;;;;;;;;17.10;99.90;;;;;;2046428;28;20472;-72
2023/08/12 04:29:11;;;;;;;;;;;17.10;99.90;;;;;;2041803;28;19926;-74
2023/08/12 04:30:16;;;;;;;;;;;17.20;99.90;;;;;;2049627;28;19926;-73
2023/08/12 04:31:16;;;;;;;;;;;17.20;99.90;;;;;;2053231;28;19980;-74
2023/08/12 04:32:17;;;;;;;;;;;17.20;99.90;;;;;;2057897;28;19917;-73
2023/08/12 04:33:21;;;;;;;;;;;17.30;99.90;;;;;;2052077;28;20424;-73
2023/08/12 04:34:23;;;;;;;;;;;17.30;99.90;;;;;;2051853;28;19966;-72
2023/08/12 04:35:25;;;;;;;;;;;17.40;99.90;;;;;;2050177;28;19918;-74
2023/08/12 04:36:26;;;;;;;;;;;17.60;99.90;;;;;;2053947;28;19945;-74
2023/08/12 04:37:28;;;;;;;;;;;17.90;99.90;;;;;;2053191;28;19929;-74
2023/08/12 04:38:31;;;;;;;;;;;18.20;99.90;;;;;;2057966;28;20036;-73
2023/08/12 04:39:32;;;;;;;;;;;18.50;99.90;;;;;;2059973;28;19920;-74
2023/08/12 04:40:33;;;;;;;;;;;18.90;99.90;;;;;;2048570;28;19918;-74
2023/08/12 04:41:34;;;;;;;;;;;19.30;99.90;;;;;;2048540;28;19926;-73
2023/08/12 04:42:36;;;;;;;;;;;19.60;99.90;;;;;;2048462;28;19919;-73
2023/08/12 04:43:38;;;;;;;;;;;19.90;99.90;;;;;;2051088;28;19914;-73
2023/08/12 04:44:38;;;;;;;;;;;20.30;99.90;;;;;;2053312;28;20190;-73
2023/08/12 04:45:39;;;;;;;;;;;20.60;99.90;;;;;;2057062;28;19922;-75
2023/08/12 04:46:41;;;;;;;;;;;20.90;99.90;;;;;;2044256;28;19976;-73
2023/08/12 04:47:41;;;;;;;;;;;21.10;99.90;;;;;;2046648;28;19987;-74
2023/08/12 04:48:45;;;;;;;;;;;21.20;99.90;;;;;;2053696;28;20009;-74
2023/08/12 04:49:46;;;;;;;;;;;21.30;99.90;;;;;;2050121;28;20345;-73
2023/08/12 04:50:47;;;;;;;;;;;21.20;99.90;;;;;;2061245;28;19914;-73
2023/08/12 04:51:48;;;;;;;;;;;21.10;99.90;;;;;;2054792;28;19922;-74
2023/08/12 04:52:48;;;;;;;;;;;20.90;99.90;;;;;;2050110;28;19921;-73
2023/08/12 04:53:50;;;;;;;;;;;20.80;99.90;;;;;;2050539;28;20563;-72
2023/08/12 04:54:52;;;;;;;;;;;20.60;99.90;;;;;;2053022;28;19917;-72
2023/08/12 04:55:54;;;;;;;;;;;20.50;99.90;;;;;;2041733;28;19914;-73
2023/08/12 04:56:56;;;;;;;;;;;20.30;99.90;;;;;;2038805;28;20507;-73
2023/08/12 04:57:56;;;;;;;;;;;20.20;99.90;;;;;;2055921;28;19924;-74
2023/08/12 04:58:57;;;;;;;;;;;20.00;99.90;;;;;;2057189;28;19936;-73
2023/08/12 04:59:58;;;;;;;;;;;19.90;99.90;;;;;;2053177;28;20022;-73
2023/08/12 05:01:00;;;;;;;;;;;19.70;99.90;;;;;;2043313;28;20056;-74
2023/08/12 05:02:00;;;;;;;;;;;19.70;99.90;;;;;;2050244;28;20366;-74
2023/08/12 05:03:01;;;;;;;;;;;19.60;99.90;;;;;;2063746;28;19956;-74
2023/08/12 05:04:01;;;;;;;;;;;19.60;99.90;;;;;;2062356;28;20200;-73
2023/08/12 05:05:02;;;;;;;;;;;19.50;99.90;;;;;;2059359;28;20399;-74
2023/08/12 05:06:06;;;;;;;;;;;19.50;99.90;;;;;;2051555;28;19972;-74
2023/08/12 05:07:06;;;;;;;;;;;19.40;99.90;;;;;;2059491;28;19929;-73
2023/08/12 05:08:07;;;;;;;;;;;19.40;99.90;;;;;;2056579;28;20374;-74
2023/08/12 05:09:09;;;;;;;;;;;19.40;99.90;;;;;;2053502;28;19914;-75
2023/08/12 05:10:10;;;;;;;;;;;19.40;99.90;;;;;;2048614;28;19925;-75
2023/08/12 05:11:11;;;;;;;;;;;19.40;99.90;;;;;;2052298;28;20348;-73
2023/08/12 05:12:12;;;;;;;;;;;19.60;99.90;;;;;;2054117;28;19918;-73
2023/08/12 05:13:12;;;;;;;;;;;19.80;99.90;;;;;;2062240;28;19976;-74
2023/08/12 05:14:13;;;;;;;;;;;19.90;99.90;;;;;;2054357;28;19918;-75
2023/08/12 05:15:13;;;;;;;;;;;20.10;99.90;;;;;;2054962;28;19929;-75
2023/08/12 05:16:14;;;;;;;;;;;20.30;99.90;;;;;;2054918;28;20556;-74
2023/08/12 05:17:15;;;;;;;;;;;20.60;99.90;;;;;;2051450;28;19914;-74
2023/08/12 05:18:16;;;;;;;;;;;20.90;99.90;;;;;;2048161;28;20090;-73
2023/08/12 05:19:17;;;;;;;;;;;21.10;99.90;;;;;;2049681;28;20295;-74
2023/08/12 05:20:18;;;;;;;;;;;21.40;99.90;;;;;;2055841;28;19997;-74
2023/08/12 05:21:18;;;;;;;;;;;21.60;99.90;;;;;;2050428;28;19918;-73
2023/08/12 05:22:19;;;;;;;;;;;21.90;99.90;;;;;;2057762;28;19968;-74
2023/08/12 05:23:20;;;;;;;;;;;22.20;99.90;;;;;;2054565;28;20393;-74
2023/08/12 05:24:21;;;;;;;;;;;22.60;99.90;;;;;;2051113;28;19919;-74
2023/08/12 05:25:21;;;;;;;;;;;22.90;99.90;;;;;;2058316;28;19918;-73
2023/08/12 05:26:22;;;;;;;;;;;23.30;99.90;;;;;;2063891;28;19917;-73
2023/08/12 05:27:22;;;;;;;;;;;23.60;99.90;;;;;;2061184;28;19914;-73
2023/08/12 05:28:23;;;;;;;;;;;23.70;99.90;;;;;;2058196;28;20424;-73
2023/08/12 05:29:23;;;;;;;;;;;23.90;99.90;;;;;;2050601;28;19918;-74
2023/08/12 05:30:24;;;;;;;;;;;24.10;99.90;;;;;;2057564;28;19917;-74
2023/08/12 05:31:24;;;;;;;;;;;24.30;99.90;;;;;;2059592;28;19968;-73
2023/08/12 05:32:25;;;;;;;;;;;24.60;99.90;;;;;;2059934;28;19918;-73
2023/08/12 05:33:25;;;;;;;;;;;24.70;99.90;;;;;;2060097;28;19980;-73
2023/08/12 05:34:26;;;;;;;;;;;24.80;99.90;;;;;;2057947;28;20201;-73
2023/08/12 05:35:27;;;;;;;;;;;24.90;99.90;;;;;;2060118;28;19918;-72
2023/08/12 05:36:28;;;;;;;;;;;25.10;99.90;;;;;;2061046;28;19949;-73
2023/08/12 05:37:29;;;;;;;;;;;25.20;99.90;;;;;;2048232;28;20597;-73
2023/08/12 05:38:29;;;;;;;;;;;25.30;99.90;;;;;;2056055;28;19917;-72
2023/08/12 05:39:30;;;;;;;;;;;25.40;99.90;;;;;;2056960;28;20278;-73
2023/08/12 05:40:30;;;;;;;;;;;25.60;99.90;;;;;;2061060;28;19964;-73
2023/08/12 05:41:31;;;;;;;;;;;25.60;99.90;;;;;;2045230;28;19922;-73
2023/08/12 05:42:31;;;;;;;;;;;25.70;99.90;;;;;;2053798;28;20018;-74
2023/08/12 05:43:32;;;;;;;;;;;25.80;99.90;;;;;;2060598;28;20009;-74
2023/08/12 05:44:32;;;;;;;;;;;25.70;99.90;;;;;;2052936;28;20012;-74
2023/08/12 05:45:33;;;;;;;;;;;25.50;99.90;;;;;;2059579;28;19926;-74
2023/08/12 05:46:33;;;;;;;;;;;25.30;99.90;;;;;;2060586;28;20296;-74
2023/08/12 05:47:34;;;;;;;;;;;25.10;99.90;;;;;;2062352;28;19949;-74
2023/08/12 05:48:34;;;;;;;;;;;25.00;99.90;;;;;;2059946;28;20092;-74
2023/08/12 05:49:35;;;;;;;;;;;25.10;99.90;;;;;;2060204;28;19921;-73
2023/08/12 05:50:35;;;;;;;;;;;25.30;99.90;;;;;;2059867;28;20012;-74
2023/08/12 05:51:35;;;;;;;;;;;25.30;99.90;;;;;;2059844;28;19995;-74
2023/08/12 05:52:36;;;;;;;;;;;25.30;99.70;;;;;;2061454;28;19922;-73
2023/08/12 05:53:37;;;;;;;;;;;25.40;99.70;;;;;;2059254;28;19994;-74
2023/08/12 05:54:37;;;;;;;;;;;25.40;99.20;;;;;;2058961;28;19922;-74
2023/08/12 05:55:38;;;;;;;;;;;25.10;98.80;;;;;;2045199;28;19981;-75